sensor_id;sensor_type;location;lat;lon;timestamp;P1;durP1;ratioP1;P2;durP2;ratioP2
35757;SDS011;21879;50.110;18.900;2022-09-02T00:07:16;2.30;;;1.50;;
35757;SDS011;21879;50.110;18.900;2022-09-02T00:17:45;2.70;;;1.50;;
35757;SDS011;21879;50.110;18.900;2022-09-02T00:28:15;2.60;;;1.60;;
35757;SDS011;21879;50.110;18.900;2022-09-02T00:38:44;2.70;;;1.00;;
35757;SDS011;21879;50.110;18.900;2022-09-02T00:49:15;3.00;;;1.80;;
35757;SDS011;21879;50.110;18.900;2022-09-02T00:59:50;2.40;;;1.40;;
35757;SDS011;21879;50.110;18.900;2022-09-02T01:10:24;2.20;;;1.20;;
35757;SDS011;21879;50.110;18.900;2022-09-02T01:20:58;3.90;;;2.00;;
35757;SDS011;21879;50.110;18.900;2022-09-02T01:31:27;6.40;;;2.80;;
35757;SDS011;21879;50.110;18.900;2022-09-02T01:41:56;3.90;;;2.30;;
35757;SDS011;21879;50.110;18.900;2022-09-02T01:52:26;1.70;;;1.40;;
35757;SDS011;21879;50.110;18.900;2022-09-02T02:02:56;3.80;;;2.20;;
35757;SDS011;21879;50.110;18.900;2022-09-02T02:13:25;5.00;;;2.20;;
35757;SDS011;21879;50.110;18.900;2022-09-02T02:23:55;3.90;;;1.90;;
35757;SDS011;21879;50.110;18.900;2022-09-02T02:34:25;10.70;;;5.00;;
35757;SDS011;21879;50.110;18.900;2022-09-02T02:44:54;3.50;;;2.40;;
35757;SDS011;21879;50.110;18.900;2022-09-02T02:55:23;3.90;;;2.90;;
35757;SDS011;21879;50.110;18.900;2022-09-02T03:05:53;3.20;;;2.20;;
35757;SDS011;21879;50.110;18.900;2022-09-02T03:16:22;3.80;;;2.00;;
35757;SDS011;21879;50.110;18.900;2022-09-02T03:26:52;4.10;;;1.80;;
35757;SDS011;21879;50.110;18.900;2022-09-02T03:37:21;2.50;;;1.80;;
35757;SDS011;21879;50.110;18.900;2022-09-02T03:47:50;3.20;;;1.60;;
35757;SDS011;21879;50.110;18.900;2022-09-02T03:58:19;4.00;;;1.90;;
35757;SDS011;21879;50.110;18.900;2022-09-02T04:08:48;3.90;;;2.00;;
35757;SDS011;21879;50.110;18.900;2022-09-02T04:19:18;2.50;;;2.30;;
35757;SDS011;21879;50.110;18.900;2022-09-02T04:29:47;3.60;;;2.10;;
35757;SDS011;21879;50.110;18.900;2022-09-02T04:40:16;4.20;;;1.80;;
35757;SDS011;21879;50.110;18.900;2022-09-02T04:50:45;2.70;;;1.50;;
35757;SDS011;21879;50.110;18.900;2022-09-02T05:01:15;7.70;;;2.90;;
35757;SDS011;21879;50.110;18.900;2022-09-02T05:11:46;4.50;;;1.70;;
35757;SDS011;21879;50.110;18.900;2022-09-02T05:22:16;3.30;;;2.20;;
35757;SDS011;21879;50.110;18.900;2022-09-02T05:32:45;7.00;;;3.50;;
35757;SDS011;21879;50.110;18.900;2022-09-02T05:43:15;3.10;;;2.50;;
35757;SDS011;21879;50.110;18.900;2022-09-02T05:53:44;7.90;;;3.10;;
35757;SDS011;21879;50.110;18.900;2022-09-02T06:04:14;5.20;;;2.60;;
35757;SDS011;21879;50.110;18.900;2022-09-02T06:14:43;4.50;;;2.00;;
35757;SDS011;21879;50.110;18.900;2022-09-02T06:25:12;4.60;;;2.00;;
35757;SDS011;21879;50.110;18.900;2022-09-02T06:35:42;4.00;;;2.30;;
35757;SDS011;21879;50.110;18.900;2022-09-02T06:46:14;4.40;;;2.10;;
35757;SDS011;21879;50.110;18.900;2022-09-02T06:56:45;3.60;;;2.60;;
35757;SDS011;21879;50.110;18.900;2022-09-02T07:07:15;5.60;;;3.10;;
35757;SDS011;21879;50.110;18.900;2022-09-02T07:17:45;4.80;;;3.70;;
35757;SDS011;21879;50.110;18.900;2022-09-02T07:28:14;7.40;;;4.70;;
35757;SDS011;21879;50.110;18.900;2022-09-02T07:38:44;8.20;;;6.10;;
35757;SDS011;21879;50.110;18.900;2022-09-02T07:49:13;7.70;;;5.50;;
35757;SDS011;21879;50.110;18.900;2022-09-02T07:59:48;5.60;;;2.40;;
35757;SDS011;21879;50.110;18.900;2022-09-02T08:10:17;3.90;;;2.00;;
35757;SDS011;21879;50.110;18.900;2022-09-02T08:20:50;2.00;;;1.40;;
35757;SDS011;21879;50.110;18.900;2022-09-02T08:31:19;1.90;;;1.30;;
35757;SDS011;21879;50.110;18.900;2022-09-02T08:41:50;2.70;;;1.20;;
35757;SDS011;21879;50.110;18.900;2022-09-02T08:52:29;3.00;;;0.90;;
35757;SDS011;21879;50.110;18.900;2022-09-02T09:03:06;2.00;;;0.90;;
35757;SDS011;21879;50.110;18.900;2022-09-02T09:13:49;1.40;;;0.80;;
35757;SDS011;21879;50.110;18.900;2022-09-02T09:24:37;1.50;;;0.60;;
35757;SDS011;21879;50.110;18.900;2022-09-02T09:35:10;2.10;;;0.70;;
35757;SDS011;21879;50.110;18.900;2022-09-02T09:45:40;1.00;;;0.50;;
35757;SDS011;21879;50.110;18.900;2022-09-02T09:56:23;1.60;;;0.50;;
35757;SDS011;21879;50.110;18.900;2022-09-02T10:07:01;1.60;;;0.70;;
35757;SDS011;21879;50.110;18.900;2022-09-02T10:17:33;1.90;;;0.50;;
35757;SDS011;21879;50.110;18.900;2022-09-02T10:28:12;1.80;;;0.60;;
35757;SDS011;21879;50.110;18.900;2022-09-02T10:38:52;0.50;;;0.40;;
35757;SDS011;21879;50.110;18.900;2022-09-02T10:49:29;0.70;;;0.50;;
35757;SDS011;21879;50.110;18.900;2022-09-02T11:00:12;0.70;;;0.30;;
35757;SDS011;21879;50.110;18.900;2022-09-02T11:10:45;1.50;;;0.90;;
35757;SDS011;21879;50.110;18.900;2022-09-02T11:21:25;4.50;;;0.80;;
35757;SDS011;21879;50.110;18.900;2022-09-02T11:32:04;2.70;;;0.70;;
35757;SDS011;21879;50.110;18.900;2022-09-02T11:42:52;1.80;;;0.60;;
35757;SDS011;21879;50.110;18.900;2022-09-02T11:53:40;1.80;;;0.60;;
35757;SDS011;21879;50.110;18.900;2022-09-02T12:04:19;1.10;;;0.60;;
35757;SDS011;21879;50.110;18.900;2022-09-02T12:15:13;1.80;;;0.50;;
35757;SDS011;21879;50.110;18.900;2022-09-02T12:25:45;0.40;;;0.30;;
35757;SDS011;21879;50.110;18.900;2022-09-02T12:47:13;0.40;;;0.40;;
35757;SDS011;21879;50.110;18.900;2022-09-02T12:58:05;0.90;;;0.50;;
35757;SDS011;21879;50.110;18.900;2022-09-02T13:08:49;0.80;;;0.40;;
35757;SDS011;21879;50.110;18.900;2022-09-02T13:30:40;1.10;;;0.60;;
35757;SDS011;21879;50.110;18.900;2022-09-02T13:41:30;1.30;;;0.60;;
35757;SDS011;21879;50.110;18.900;2022-09-02T13:51:59;0.90;;;0.60;;
35757;SDS011;21879;50.110;18.900;2022-09-02T14:02:34;2.90;;;0.90;;
35757;SDS011;21879;50.110;18.900;2022-09-02T14:13:05;2.50;;;0.70;;
35757;SDS011;21879;50.110;18.900;2022-09-02T14:23:37;3.80;;;1.00;;
35757;SDS011;21879;50.110;18.900;2022-09-02T14:34:31;1.40;;;0.70;;
35757;SDS011;21879;50.110;18.900;2022-09-02T14:45:05;2.10;;;1.20;;
35757;SDS011;21879;50.110;18.900;2022-09-02T14:55:48;1.90;;;1.00;;
35757;SDS011;21879;50.110;18.900;2022-09-02T15:06:27;3.40;;;0.70;;
35757;SDS011;21879;50.110;18.900;2022-09-02T15:16:56;3.20;;;0.80;;
35757;SDS011;21879;50.110;18.900;2022-09-02T15:27:33;3.30;;;1.10;;
35757;SDS011;21879;50.110;18.900;2022-09-02T15:38:03;2.40;;;0.80;;
35757;SDS011;21879;50.110;18.900;2022-09-02T15:48:33;2.50;;;0.80;;
35757;SDS011;21879;50.110;18.900;2022-09-02T15:59:03;3.10;;;1.30;;
35757;SDS011;21879;50.110;18.900;2022-09-02T16:09:34;2.60;;;1.20;;
35757;SDS011;21879;50.110;18.900;2022-09-02T16:20:04;2.00;;;0.80;;
35757;SDS011;21879;50.110;18.900;2022-09-02T16:30:34;1.50;;;0.90;;
35757;SDS011;21879;50.110;18.900;2022-09-02T16:41:09;2.30;;;0.90;;
35757;SDS011;21879;50.110;18.900;2022-09-02T16:51:51;2.60;;;1.20;;
35757;SDS011;21879;50.110;18.900;2022-09-02T17:02:22;1.70;;;0.90;;
35757;SDS011;21879;50.110;18.900;2022-09-02T17:12:54;1.30;;;0.90;;
35757;SDS011;21879;50.110;18.900;2022-09-02T17:23:23;4.10;;;1.10;;
35757;SDS011;21879;50.110;18.900;2022-09-02T17:33:53;1.80;;;1.30;;
35757;SDS011;21879;50.110;18.900;2022-09-02T17:44:24;2.30;;;1.20;;
35757;SDS011;21879;50.110;18.900;2022-09-02T17:54:57;2.20;;;1.30;;
35757;SDS011;21879;50.110;18.900;2022-09-02T18:05:27;2.40;;;1.30;;
35757;SDS011;21879;50.110;18.900;2022-09-02T18:16:05;2.30;;;1.30;;
35757;SDS011;21879;50.110;18.900;2022-09-02T18:26:49;5.00;;;1.40;;
35757;SDS011;21879;50.110;18.900;2022-09-02T18:37:30;2.20;;;1.40;;
35757;SDS011;21879;50.110;18.900;2022-09-02T18:48:09;2.80;;;1.50;;
35757;SDS011;21879;50.110;18.900;2022-09-02T18:58:43;3.50;;;1.60;;
35757;SDS011;21879;50.110;18.900;2022-09-02T19:09:15;4.10;;;2.00;;
35757;SDS011;21879;50.110;18.900;2022-09-02T19:19:49;4.30;;;1.60;;
35757;SDS011;21879;50.110;18.900;2022-09-02T19:30:19;3.60;;;1.70;;
35757;SDS011;21879;50.110;18.900;2022-09-02T19:40:49;6.50;;;2.70;;
35757;SDS011;21879;50.110;18.900;2022-09-02T19:51:19;3.90;;;2.40;;
35757;SDS011;21879;50.110;18.900;2022-09-02T20:01:51;3.50;;;2.00;;
35757;SDS011;21879;50.110;18.900;2022-09-02T20:12:22;2.60;;;1.80;;
35757;SDS011;21879;50.110;18.900;2022-09-02T20:22:52;3.90;;;2.20;;
35757;SDS011;21879;50.110;18.900;2022-09-02T20:33:22;5.80;;;2.40;;
35757;SDS011;21879;50.110;18.900;2022-09-02T20:44:03;3.80;;;2.30;;
35757;SDS011;21879;50.110;18.900;2022-09-02T20:54:44;3.90;;;2.30;;
35757;SDS011;21879;50.110;18.900;2022-09-02T21:05:22;4.60;;;2.40;;
35757;SDS011;21879;50.110;18.900;2022-09-02T21:15:55;6.30;;;2.90;;
35757;SDS011;21879;50.110;18.900;2022-09-02T21:26:28;5.70;;;3.10;;
35757;SDS011;21879;50.110;18.900;2022-09-02T21:37:05;5.20;;;3.20;;
35757;SDS011;21879;50.110;18.900;2022-09-02T21:47:37;5.30;;;2.80;;
35757;SDS011;21879;50.110;18.900;2022-09-02T21:58:19;5.30;;;2.80;;
35757;SDS011;21879;50.110;18.900;2022-09-02T22:09:00;4.30;;;2.50;;
35757;SDS011;21879;50.110;18.900;2022-09-02T22:19:33;4.70;;;2.40;;
35757;SDS011;21879;50.110;18.900;2022-09-02T22:30:07;3.60;;;2.20;;
35757;SDS011;21879;50.110;18.900;2022-09-02T22:40:41;5.10;;;2.90;;
35757;SDS011;21879;50.110;18.900;2022-09-02T22:51:14;5.00;;;2.20;;
35757;SDS011;21879;50.110;18.900;2022-09-02T23:02:07;3.40;;;2.30;;
35757;SDS011;21879;50.110;18.900;2022-09-02T23:12:45;4.80;;;2.40;;
35757;SDS011;21879;50.110;18.900;2022-09-02T23:23:24;5.30;;;2.10;;
35757;SDS011;21879;50.110;18.900;2022-09-02T23:34:06;4.80;;;2.20;;
35757;SDS011;21879;50.110;18.900;2022-09-02T23:44:57;4.80;;;2.10;;
35757;SDS011;21879;50.110;18.900;2022-09-02T23:55:33;3.60;;;2.00;;
